createdAt,value
2016-08-25T00:00:08.942Z,0
2016-08-25T00:01:21.932Z,0
2016-08-25T00:02:34.920Z,0
2016-08-25T00:03:47.898Z,0
2016-08-25T00:05:00.886Z,0
2016-08-25T00:06:13.863Z,0
2016-08-25T00:07:26.845Z,0
2016-08-25T00:08:40.030Z,0
2016-08-25T00:09:53.010Z,0
2016-08-25T00:11:06.208Z,0
2016-08-25T00:12:19.187Z,0
2016-08-25T00:13:32.366Z,0
2016-08-25T00:14:45.540Z,0
2016-08-25T00:15:58.519Z,0
2016-08-25T00:17:11.513Z,0
2016-08-25T00:18:24.502Z,0
2016-08-25T00:19:37.486Z,0
2016-08-25T00:20:50.484Z,0
2016-08-25T00:22:03.674Z,0
2016-08-25T00:23:16.661Z,0
2016-08-25T00:24:29.643Z,0
2016-08-25T00:25:42.627Z,0
2016-08-25T00:26:55.620Z,0
2016-08-25T00:28:08.603Z,0
2016-08-25T00:29:21.585Z,0
2016-08-25T00:30:34.573Z,0
2016-08-25T00:31:47.551Z,0
2016-08-25T00:33:00.527Z,0
2016-08-25T00:34:13.510Z,0
2016-08-25T00:35:26.501Z,0
2016-08-25T00:36:39.479Z,0
2016-08-25T00:37:52.456Z,0
2016-08-25T00:39:05.438Z,0
2016-08-25T00:40:18.425Z,0
2016-08-25T00:41:31.434Z,0
2016-08-25T00:42:44.419Z,0
2016-08-25T00:43:57.400Z,0
2016-08-25T00:45:10.402Z,0
2016-08-25T00:46:23.384Z,0
2016-08-25T00:47:36.377Z,0
2016-08-25T00:48:49.365Z,0
2016-08-25T00:50:02.358Z,0
2016-08-25T00:51:15.363Z,0
2016-08-25T00:52:28.343Z,0
2016-08-25T00:53:41.474Z,0
2016-08-25T00:54:54.469Z,0
2016-08-25T00:56:07.454Z,0
2016-08-25T00:57:20.441Z,0
2016-08-25T00:58:33.420Z,0
2016-08-25T00:59:46.414Z,0
2016-08-25T01:00:59.399Z,0
2016-08-25T01:02:12.389Z,0
2016-08-25T01:03:25.385Z,0
2016-08-25T01:04:38.365Z,0
2016-08-25T01:05:51.349Z,0
2016-08-25T01:07:04.528Z,0
2016-08-25T01:08:17.517Z,0
2016-08-25T01:09:30.503Z,0
2016-08-25T01:10:43.479Z,0
2016-08-25T01:11:56.469Z,0
2016-08-25T01:13:09.452Z,0
2016-08-25T01:14:22.446Z,0
2016-08-25T01:15:35.454Z,0
2016-08-25T01:16:48.441Z,0
2016-08-25T01:18:01.418Z,0
2016-08-25T01:19:14.392Z,0
2016-08-25T01:20:27.373Z,0
2016-08-25T01:21:40.368Z,0
2016-08-25T01:22:53.349Z,0
2016-08-25T01:24:06.333Z,0
2016-08-25T01:25:19.511Z,0
2016-08-25T01:26:32.498Z,0
2016-08-25T01:27:45.685Z,0
2016-08-25T01:28:58.669Z,0
2016-08-25T01:30:11.652Z,0
2016-08-25T01:31:24.651Z,0
2016-08-25T01:32:37.633Z,0
2016-08-25T01:33:50.613Z,0
2016-08-25T01:35:03.608Z,0
2016-08-25T01:36:16.600Z,0
2016-08-25T01:37:29.787Z,0
2016-08-25T01:38:42.771Z,0
2016-08-25T01:39:55.752Z,0
2016-08-25T01:41:08.727Z,0
2016-08-25T01:42:21.716Z,0
2016-08-25T01:43:34.683Z,0
2016-08-25T01:44:47.657Z,0
2016-08-25T01:46:00.850Z,0
2016-08-25T01:47:13.832Z,0
2016-08-25T01:48:26.816Z,0
2016-08-25T01:49:39.782Z,0
2016-08-25T01:50:52.763Z,0
2016-08-25T01:52:05.752Z,0
2016-08-25T01:53:18.739Z,0
2016-08-25T01:54:31.769Z,0
2016-08-25T01:55:44.754Z,0
2016-08-25T01:56:57.933Z,0
2016-08-25T01:58:10.917Z,0
2016-08-25T01:59:24.111Z,0
2016-08-25T02:00:37.315Z,0
2016-08-25T02:01:50.299Z,0
2016-08-25T02:03:03.284Z,0
2016-08-25T02:04:16.273Z,0
2016-08-25T02:05:29.250Z,0
2016-08-25T02:06:42.227Z,0
2016-08-25T02:07:55.211Z,0
2016-08-25T02:09:08.193Z,0
2016-08-25T02:10:21.177Z,0
2016-08-25T02:11:34.152Z,0
2016-08-25T02:12:47.134Z,0
2016-08-25T02:14:00.113Z,0
2016-08-25T02:15:13.098Z,0
2016-08-25T02:16:26.078Z,0
2016-08-25T02:17:39.067Z,0
2016-08-25T02:18:52.060Z,0
2016-08-25T02:20:05.249Z,0
2016-08-25T02:21:18.422Z,0
2016-08-25T02:22:31.412Z,0
2016-08-25T02:23:44.811Z,0
2016-08-25T02:24:58.009Z,0
2016-08-25T02:26:10.974Z,0
2016-08-25T02:27:23.960Z,0
2016-08-25T02:28:36.934Z,0
2016-08-25T02:29:49.924Z,0
2016-08-25T02:31:02.915Z,0
2016-08-25T02:32:15.897Z,0
2016-08-25T02:33:28.897Z,0
2016-08-25T02:34:41.903Z,0
2016-08-25T02:35:54.882Z,0
2016-08-25T02:37:07.861Z,0
2016-08-25T02:38:20.858Z,0
2016-08-25T02:39:33.838Z,0
2016-08-25T02:40:46.807Z,0
2016-08-25T02:41:59.798Z,0
2016-08-25T02:43:12.788Z,0
2016-08-25T02:44:25.785Z,0
2016-08-25T02:45:38.781Z,0
2016-08-25T02:46:51.766Z,0
2016-08-25T02:48:04.745Z,0
2016-08-25T02:49:18.136Z,0
2016-08-25T02:50:31.113Z,0
2016-08-25T02:51:44.320Z,0
2016-08-25T02:52:57.306Z,0
2016-08-25T02:54:10.308Z,0
2016-08-25T02:55:23.346Z,0
2016-08-25T02:56:36.325Z,0
2016-08-25T02:57:49.300Z,0
2016-08-25T02:59:02.501Z,0
2016-08-25T03:00:15.684Z,0
2016-08-25T03:01:28.668Z,0
2016-08-25T03:02:41.658Z,0
2016-08-25T03:03:54.627Z,0
2016-08-25T03:05:07.622Z,0
2016-08-25T03:06:20.617Z,0
2016-08-25T03:07:33.605Z,0
2016-08-25T03:08:46.786Z,0
2016-08-25T03:09:59.773Z,0
2016-08-25T03:11:12.756Z,0
2016-08-25T03:12:25.737Z,0
2016-08-25T03:13:38.715Z,0
2016-08-25T03:14:51.701Z,0
2016-08-25T03:16:04.874Z,0
2016-08-25T03:17:17.842Z,0
2016-08-25T03:18:30.825Z,0
2016-08-25T03:19:43.807Z,0
2016-08-25T03:20:56.786Z,0
2016-08-25T03:22:09.763Z,0
2016-08-25T03:23:22.744Z,0
2016-08-25T03:24:35.727Z,0
2016-08-25T03:25:48.723Z,0
2016-08-25T03:27:01.903Z,0
2016-08-25T03:28:14.872Z,0
2016-08-25T03:29:27.850Z,0
2016-08-25T03:30:40.836Z,0
2016-08-25T03:31:53.820Z,0
2016-08-25T03:33:06.792Z,0
2016-08-25T03:34:19.781Z,0
2016-08-25T03:35:32.963Z,0
2016-08-25T03:36:45.947Z,0
2016-08-25T03:37:58.924Z,0
2016-08-25T03:39:12.303Z,0
2016-08-25T03:40:25.305Z,0
2016-08-25T03:41:38.285Z,0
2016-08-25T03:42:51.264Z,0
2016-08-25T03:44:04.244Z,0
2016-08-25T03:45:17.224Z,0
2016-08-25T03:46:30.202Z,0
2016-08-25T03:47:43.399Z,0
2016-08-25T03:48:56.569Z,0
2016-08-25T03:50:09.557Z,0
2016-08-25T03:51:22.548Z,0
2016-08-25T03:52:35.538Z,0
2016-08-25T03:53:48.521Z,0
2016-08-25T03:55:01.500Z,0
2016-08-25T03:56:14.549Z,0
2016-08-25T03:57:27.539Z,0
2016-08-25T03:58:40.514Z,0
2016-08-25T03:59:53.699Z,0
2016-08-25T04:01:06.685Z,0
2016-08-25T04:02:19.671Z,0
2016-08-25T04:03:32.849Z,0
2016-08-25T04:04:45.831Z,0
2016-08-25T04:05:58.806Z,0
2016-08-25T04:07:11.792Z,0
2016-08-25T04:08:24.965Z,0
2016-08-25T04:09:37.947Z,0
2016-08-25T04:10:50.943Z,0
2016-08-25T04:12:03.927Z,0
2016-08-25T04:13:17.113Z,0
2016-08-25T04:14:30.102Z,0
2016-08-25T04:15:43.074Z,0
2016-08-25T04:16:56.050Z,0
2016-08-25T04:18:09.023Z,0
2016-08-25T04:19:22.004Z,0
2016-08-25T04:20:34.995Z,0
2016-08-25T04:21:47.974Z,0
2016-08-25T04:23:00.960Z,0
2016-08-25T04:24:13.953Z,5
2016-08-25T04:25:26.928Z,5
2016-08-25T04:26:39.906Z,5
2016-08-25T04:27:52.902Z,5
2016-08-25T04:29:05.885Z,5
2016-08-25T04:30:18.858Z,5
2016-08-25T04:31:31.827Z,5
2016-08-25T04:32:44.800Z,10
2016-08-25T04:33:57.982Z,10
2016-08-25T04:35:10.971Z,10
2016-08-25T04:36:23.949Z,10
2016-08-25T04:37:36.945Z,10
2016-08-25T04:38:50.128Z,15
2016-08-25T04:40:03.106Z,15
2016-08-25T04:41:16.090Z,15
2016-08-25T04:42:29.068Z,15
2016-08-25T04:43:42.056Z,20
2016-08-25T04:44:55.034Z,20
2016-08-25T04:46:08.018Z,20
2016-08-25T04:47:21.007Z,20
2016-08-25T04:48:34.187Z,25
2016-08-25T04:49:47.366Z,25
2016-08-25T04:51:00.355Z,25
2016-08-25T04:52:13.531Z,30
2016-08-25T04:53:26.524Z,30
2016-08-25T04:54:39.506Z,30
2016-08-25T04:55:52.482Z,30
2016-08-25T04:57:05.507Z,35
2016-08-25T04:58:18.484Z,35
2016-08-25T04:59:31.469Z,35
2016-08-25T05:00:44.461Z,40
2016-08-25T05:01:57.640Z,40
2016-08-25T05:03:10.617Z,45
2016-08-25T05:04:23.798Z,45
2016-08-25T05:05:36.780Z,45
2016-08-25T05:06:49.772Z,50
2016-08-25T05:08:02.754Z,50
2016-08-25T05:09:15.739Z,55
2016-08-25T05:10:28.716Z,55
2016-08-25T05:11:41.929Z,55
2016-08-25T05:12:54.907Z,55
2016-08-25T05:14:07.892Z,60
2016-08-25T05:15:20.864Z,60
2016-08-25T05:16:34.045Z,60
2016-08-25T05:17:47.029Z,60
2016-08-25T05:19:00.015Z,60
2016-08-25T05:20:12.986Z,60
2016-08-25T05:21:25.962Z,60
2016-08-25T05:22:39.133Z,60
2016-08-25T05:23:52.117Z,65
2016-08-25T05:25:05.096Z,65
2016-08-25T05:26:18.080Z,65
2016-08-25T05:27:31.059Z,75
2016-08-25T05:28:44.029Z,80
2016-08-25T05:29:57.013Z,70
2016-08-25T05:31:10.010Z,70
2016-08-25T05:32:23.185Z,70
2016-08-25T05:33:36.175Z,70
2016-08-25T05:34:49.149Z,75
2016-08-25T05:36:02.127Z,75
2016-08-25T05:37:15.122Z,75
2016-08-25T05:38:28.093Z,75
2016-08-25T05:39:41.077Z,80
2016-08-25T05:40:54.055Z,80
2016-08-25T05:42:07.032Z,80
2016-08-25T05:43:20.010Z,80
2016-08-25T05:44:32.982Z,85
2016-08-25T05:45:47.679Z,85
2016-08-25T05:47:00.658Z,85
2016-08-25T05:48:13.666Z,85
2016-08-25T05:49:26.861Z,85
2016-08-25T05:50:39.845Z,90
2016-08-25T05:51:52.842Z,90
2016-08-25T05:53:05.821Z,90
2016-08-25T05:54:18.917Z,90
2016-08-25T05:55:31.899Z,90
2016-08-25T05:56:44.894Z,95
2016-08-25T05:57:57.925Z,95
2016-08-25T05:59:10.911Z,95
2016-08-25T06:00:23.912Z,95
2016-08-25T06:01:36.896Z,100
2016-08-25T06:02:49.880Z,100
2016-08-25T06:04:02.862Z,100
2016-08-25T06:05:15.839Z,100
2016-08-25T06:06:28.808Z,100
2016-08-25T06:07:41.786Z,105
2016-08-25T06:08:54.974Z,105
2016-08-25T06:10:07.958Z,105
2016-08-25T06:11:20.944Z,105
2016-08-25T06:12:33.920Z,105
2016-08-25T06:13:48.811Z,110
2016-08-25T06:15:02.283Z,110
2016-08-25T06:16:15.279Z,110
2016-08-25T06:17:28.270Z,110
2016-08-25T06:18:41.382Z,120
2016-08-25T06:19:54.407Z,120
2016-08-25T06:21:07.454Z,115
2016-08-25T06:22:20.843Z,115
2016-08-25T06:23:35.069Z,120
2016-08-25T06:24:48.385Z,120
2016-08-25T06:26:01.360Z,120
2016-08-25T06:27:14.363Z,130
2016-08-25T06:28:27.543Z,125
2016-08-25T06:29:40.533Z,135
2016-08-25T06:30:55.035Z,160
2016-08-25T06:32:08.086Z,140
2016-08-25T06:33:21.081Z,130
2016-08-25T06:34:35.586Z,130
2016-08-25T06:35:48.773Z,135
2016-08-25T06:37:01.757Z,175
2016-08-25T06:38:15.255Z,790
2016-08-25T06:39:29.837Z,1495
2016-08-25T06:40:46.939Z,1505
2016-08-25T06:42:01.521Z,1460
2016-08-25T06:43:17.093Z,1630
2016-08-25T06:44:30.652Z,1670
2016-08-25T06:45:45.319Z,1580
2016-08-25T06:46:59.476Z,1720
2016-08-25T06:48:14.774Z,1695
2016-08-25T06:49:28.228Z,1660
2016-08-25T06:50:41.881Z,1635
2016-08-25T06:51:55.693Z,1725
2016-08-25T06:53:09.383Z,1735
2016-08-25T06:54:23.105Z,1760
2016-08-25T06:55:36.358Z,1755
2016-08-25T06:56:49.346Z,1760
2016-08-25T06:58:02.389Z,1720
2016-08-25T06:59:15.391Z,1740
2016-08-25T07:00:28.384Z,1800
2016-08-25T07:01:41.718Z,1830
2016-08-25T07:03:00.571Z,1825
2016-08-25T07:04:16.924Z,1885
2016-08-25T07:05:31.127Z,1890
2016-08-25T07:06:45.700Z,1825
2016-08-25T07:08:07.431Z,1825
2016-08-25T07:09:21.466Z,1795
2016-08-25T07:10:36.651Z,1880
2016-08-25T07:11:49.786Z,1850
2016-08-25T07:13:02.781Z,1885
2016-08-25T07:14:15.997Z,1965
2016-08-25T07:15:29.003Z,1965
2016-08-25T07:16:41.998Z,1875
2016-08-25T07:17:57.202Z,1830
2016-08-25T07:19:10.949Z,1865
2016-08-25T07:20:23.994Z,1880
2016-08-25T07:21:37.501Z,1845
2016-08-25T07:22:50.741Z,2020
2016-08-25T07:24:03.982Z,2010
2016-08-25T07:25:17.504Z,1975
2016-08-25T07:26:33.658Z,1955
2016-08-25T07:27:47.145Z,2105
2016-08-25T07:29:00.298Z,1990
2016-08-25T07:30:13.596Z,1825
2016-08-25T07:31:26.628Z,1940
2016-08-25T07:32:39.839Z,1800
2016-08-25T07:33:54.436Z,2015
2016-08-25T07:35:09.167Z,2060
2016-08-25T07:36:22.213Z,2075
2016-08-25T07:37:36.458Z,2120
2016-08-25T07:38:49.643Z,2095
2016-08-25T07:40:03.079Z,1960
2016-08-25T07:41:16.089Z,1855
2016-08-25T07:42:29.166Z,2025
2016-08-25T07:43:45.185Z,2030
2016-08-25T07:44:59.923Z,2055
2016-08-25T07:46:15.648Z,2045
2016-08-25T07:47:28.819Z,2045
2016-08-25T07:48:41.871Z,2070
2016-08-25T07:49:59.841Z,2015
2016-08-25T07:51:21.482Z,2285
2016-08-25T07:52:42.111Z,2095
2016-08-25T07:54:05.589Z,2025
2016-08-25T07:55:19.827Z,1965
2016-08-25T07:56:32.826Z,2125
2016-08-25T07:57:45.862Z,2120
2016-08-25T07:58:59.830Z,2215
2016-08-25T08:00:13.053Z,2135
2016-08-25T08:01:26.056Z,2095
2016-08-25T08:02:41.496Z,2190
2016-08-25T08:03:54.672Z,2110
2016-08-25T08:05:07.885Z,2255
2016-08-25T08:06:21.165Z,2140
2016-08-25T08:07:34.205Z,2150
2016-08-25T08:08:47.217Z,2080
2016-08-25T08:10:00.220Z,2100
2016-08-25T08:11:13.252Z,2085
2016-08-25T08:12:44.101Z,2170
2016-08-25T08:14:15.404Z,2270
2016-08-25T08:15:28.417Z,2185
2016-08-25T08:16:41.562Z,2115
2016-08-25T08:17:54.740Z,2135
2016-08-25T08:19:07.747Z,2045
2016-08-25T08:20:20.784Z,2165
2016-08-25T08:21:33.792Z,2115
2016-08-25T08:22:46.810Z,2280
2016-08-25T08:23:59.837Z,2120
2016-08-25T08:25:12.846Z,1935
2016-08-25T08:26:25.872Z,1905
2016-08-25T08:27:38.889Z,2150
2016-08-25T08:28:51.899Z,2225
2016-08-25T08:30:04.927Z,2185
2016-08-25T08:31:17.941Z,2160
2016-08-25T08:32:30.950Z,2145
2016-08-25T08:33:44.169Z,2165
2016-08-25T08:34:57.380Z,2165
2016-08-25T08:36:10.382Z,2060
2016-08-25T08:37:23.828Z,2110
2016-08-25T08:38:36.885Z,2075
2016-08-25T08:39:49.901Z,2200
2016-08-25T08:41:02.913Z,2105
2016-08-25T08:42:15.914Z,2085
2016-08-25T08:43:28.967Z,2240
2016-08-25T08:44:41.968Z,2150
2016-08-25T08:45:56.719Z,2205
2016-08-25T08:47:09.858Z,2150
2016-08-25T08:48:22.867Z,2100
2016-08-25T08:49:35.869Z,2020
2016-08-25T08:50:48.894Z,2000
2016-08-25T08:52:01.908Z,2190
2016-08-25T08:53:16.839Z,2110
2016-08-25T08:54:30.277Z,2065
2016-08-25T08:55:43.484Z,2085
2016-08-25T08:56:56.520Z,2240
2016-08-25T08:58:09.609Z,2245
2016-08-25T08:59:22.676Z,2070
2016-08-25T09:00:35.819Z,2165
2016-08-25T09:01:48.840Z,2165
2016-08-25T09:03:01.847Z,2175
2016-08-25T09:04:14.890Z,2070
2016-08-25T09:05:27.900Z,2095
2016-08-25T09:06:40.901Z,2115
2016-08-25T09:07:53.954Z,2085
2016-08-25T09:09:07.010Z,1900
2016-08-25T09:10:20.022Z,1865
2016-08-25T09:11:33.050Z,1835
2016-08-25T09:12:46.059Z,1880
2016-08-25T09:13:59.069Z,1845
2016-08-25T09:15:12.091Z,1940
2016-08-25T09:16:25.114Z,1945
2016-08-25T09:17:38.340Z,1880
2016-08-25T09:18:51.353Z,1800
2016-08-25T09:20:04.363Z,1790
2016-08-25T09:21:17.371Z,1820
2016-08-25T09:22:30.381Z,1860
2016-08-25T09:23:43.511Z,1910
2016-08-25T09:24:56.761Z,1820
2016-08-25T09:26:09.822Z,1760
2016-08-25T09:27:22.840Z,1760
2016-08-25T09:28:35.870Z,1710
2016-08-25T09:29:49.113Z,1960
2016-08-25T09:31:02.125Z,1750
2016-08-25T09:32:15.130Z,1820
2016-08-25T09:33:28.146Z,1820
2016-08-25T09:34:41.168Z,1810
2016-08-25T09:35:54.392Z,1760
2016-08-25T09:37:07.400Z,1860
2016-08-25T09:38:20.401Z,1750
2016-08-25T09:39:33.404Z,1665
2016-08-25T09:40:51.846Z,1635
2016-08-25T09:42:11.806Z,1725
2016-08-25T09:43:25.115Z,1790
2016-08-25T09:44:38.123Z,1810
2016-08-25T09:45:51.200Z,1760
2016-08-25T09:47:04.487Z,1715
2016-08-25T09:48:17.516Z,1875
2016-08-25T09:49:30.730Z,1795
2016-08-25T09:50:43.744Z,1725
2016-08-25T09:51:56.824Z,1890
2016-08-25T09:53:09.855Z,1785
2016-08-25T09:54:22.887Z,1740
2016-08-25T09:55:35.970Z,1830
2016-08-25T09:56:49.369Z,1790
2016-08-25T09:58:03.184Z,1755
2016-08-25T09:59:16.381Z,1785
2016-08-25T10:00:29.949Z,1735
2016-08-25T10:01:43.626Z,1700
2016-08-25T10:02:56.917Z,1685
2016-08-25T10:04:09.921Z,1665
2016-08-25T10:05:22.920Z,1725
2016-08-25T10:06:35.924Z,1680
2016-08-25T10:07:49.344Z,1600
2016-08-25T10:09:02.359Z,1635
2016-08-25T10:10:15.373Z,1625
2016-08-25T10:11:28.381Z,1665
2016-08-25T10:12:41.600Z,1690
2016-08-25T10:13:54.600Z,1495
2016-08-25T10:15:07.811Z,1515
2016-08-25T10:16:21.013Z,1640
2016-08-25T10:17:34.228Z,1600
2016-08-25T10:18:47.454Z,1645
2016-08-25T10:20:00.469Z,1700
2016-08-25T10:21:13.488Z,1670
2016-08-25T10:22:26.496Z,1590
2016-08-25T10:23:39.504Z,1725
2016-08-25T10:24:52.712Z,1630
2016-08-25T10:26:05.721Z,1610
2016-08-25T10:27:18.740Z,1600
2016-08-25T10:28:31.746Z,1615
2016-08-25T10:29:44.747Z,1580
2016-08-25T10:30:57.785Z,1575
2016-08-25T10:32:10.795Z,1590
2016-08-25T10:33:23.809Z,1590
2016-08-25T10:34:36.825Z,1600
2016-08-25T10:35:49.846Z,1585
2016-08-25T10:37:02.858Z,1515
2016-08-25T10:38:16.059Z,1455
2016-08-25T10:39:29.061Z,1545
2016-08-25T10:40:42.275Z,1510
2016-08-25T10:41:55.309Z,1500
2016-08-25T10:43:08.329Z,1490
2016-08-25T10:44:21.539Z,1515
2016-08-25T10:45:34.532Z,1475
2016-08-25T10:46:47.535Z,1360
2016-08-25T10:48:00.547Z,1385
2016-08-25T10:49:13.753Z,1430
2016-08-25T10:50:26.753Z,1425
2016-08-25T10:51:39.794Z,1475
2016-08-25T10:52:52.807Z,1480
2016-08-25T10:54:05.806Z,1410
2016-08-25T10:55:18.817Z,1275
2016-08-25T10:56:31.818Z,1185
2016-08-25T10:57:44.836Z,1340
2016-08-25T10:58:59.703Z,1335
2016-08-25T11:00:14.437Z,1250
2016-08-25T11:01:28.563Z,1235
2016-08-25T11:02:42.607Z,1315
2016-08-25T11:03:58.084Z,1400
2016-08-25T11:05:11.137Z,1440
2016-08-25T11:06:25.017Z,1465
2016-08-25T11:07:43.561Z,1535
2016-08-25T11:08:57.708Z,1510
2016-08-25T11:10:11.278Z,1430
2016-08-25T11:11:24.373Z,1405
2016-08-25T11:12:38.981Z,1485
2016-08-25T11:13:52.117Z,1580
2016-08-25T11:15:05.149Z,1520
2016-08-25T11:16:18.214Z,1445
2016-08-25T11:17:31.260Z,1430
2016-08-25T11:18:44.267Z,1400
2016-08-25T11:19:57.263Z,1405
2016-08-25T11:21:10.492Z,1375
2016-08-25T11:22:23.696Z,1270
2016-08-25T11:23:36.699Z,1270
2016-08-25T11:24:49.703Z,1350
2016-08-25T11:26:02.720Z,1435
2016-08-25T11:27:15.743Z,1505
2016-08-25T11:28:28.755Z,1515
2016-08-25T11:29:41.755Z,1405
2016-08-25T11:30:54.759Z,1040
2016-08-25T11:32:07.756Z,650
2016-08-25T11:33:20.784Z,555
2016-08-25T11:34:33.790Z,550
2016-08-25T11:35:46.788Z,590
2016-08-25T11:36:59.789Z,620
2016-08-25T11:38:12.791Z,645
2016-08-25T11:39:25.802Z,695
2016-08-25T11:40:38.809Z,720
2016-08-25T11:41:51.816Z,800
2016-08-25T11:43:04.844Z,885
2016-08-25T11:44:18.058Z,945
2016-08-25T11:45:31.053Z,995
2016-08-25T11:46:46.543Z,1060
2016-08-25T11:48:02.206Z,1075
2016-08-25T11:49:17.025Z,1105
2016-08-25T11:50:30.038Z,1115
2016-08-25T11:51:43.050Z,1130
2016-08-25T11:52:56.072Z,1115
2016-08-25T11:54:09.078Z,1115
2016-08-25T11:55:22.079Z,1070
2016-08-25T11:56:35.103Z,1055
2016-08-25T11:57:48.117Z,1090
2016-08-25T11:59:01.125Z,1045
2016-08-25T12:00:14.179Z,1040
2016-08-25T12:01:27.181Z,1030
2016-08-25T12:02:40.177Z,995
2016-08-25T12:03:53.170Z,970
2016-08-25T12:05:06.388Z,950
2016-08-25T12:06:19.400Z,925
2016-08-25T12:07:32.404Z,920
2016-08-25T12:08:45.409Z,920
2016-08-25T12:09:58.417Z,895
2016-08-25T12:11:11.434Z,885
2016-08-25T12:12:24.433Z,865
2016-08-25T12:13:37.444Z,835
2016-08-25T12:14:50.448Z,795
2016-08-25T12:16:03.464Z,775
2016-08-25T12:17:16.482Z,755
2016-08-25T12:18:29.482Z,810
2016-08-25T12:19:42.704Z,830
2016-08-25T12:20:55.739Z,770
2016-08-25T12:22:08.748Z,740
2016-08-25T12:23:21.751Z,720
2016-08-25T12:24:34.755Z,700
2016-08-25T12:25:47.762Z,710
2016-08-25T12:27:00.763Z,710
2016-08-25T12:28:13.793Z,695
2016-08-25T12:29:26.779Z,675
2016-08-25T12:30:39.872Z,650
2016-08-25T12:31:52.885Z,635
2016-08-25T12:33:05.885Z,600
2016-08-25T12:34:19.089Z,575
2016-08-25T12:35:32.290Z,560
2016-08-25T12:36:45.330Z,545
2016-08-25T12:37:58.337Z,550
2016-08-25T12:39:11.331Z,545
2016-08-25T12:40:24.346Z,435
2016-08-25T12:41:37.580Z,530
2016-08-25T12:42:50.581Z,535
2016-08-25T12:44:03.798Z,535
2016-08-25T12:45:16.885Z,260
2016-08-25T12:46:30.087Z,525
2016-08-25T12:47:43.100Z,515
2016-08-25T12:48:56.101Z,415
2016-08-25T12:50:09.115Z,495
2016-08-25T12:51:22.518Z,490
2016-08-25T12:52:35.708Z,485
2016-08-25T12:53:48.726Z,485
2016-08-25T12:55:01.741Z,475
2016-08-25T12:56:14.740Z,465
2016-08-25T12:57:27.940Z,455
2016-08-25T12:58:41.157Z,445
2016-08-25T12:59:54.166Z,435
2016-08-25T13:01:07.217Z,430
2016-08-25T13:02:20.241Z,420
2016-08-25T13:03:33.242Z,420
2016-08-25T13:04:46.265Z,415
2016-08-25T13:05:59.268Z,410
2016-08-25T13:07:12.273Z,395
2016-08-25T13:08:25.266Z,385
2016-08-25T13:09:38.259Z,380
2016-08-25T13:10:51.505Z,375
2016-08-25T13:12:04.519Z,370
2016-08-25T13:13:17.721Z,365
2016-08-25T13:14:30.723Z,375
2016-08-25T13:15:43.745Z,350
2016-08-25T13:16:56.753Z,305
2016-08-25T13:18:09.749Z,155
2016-08-25T13:19:23.305Z,235
2016-08-25T13:20:36.580Z,195
2016-08-25T13:21:49.579Z,215
2016-08-25T13:23:02.573Z,225
2016-08-25T13:24:15.567Z,250
2016-08-25T13:25:28.791Z,275
2016-08-25T13:26:41.788Z,285
2016-08-25T13:27:54.807Z,260
2016-08-25T13:29:07.805Z,280
2016-08-25T13:30:20.801Z,345
2016-08-25T13:31:33.800Z,335
2016-08-25T13:32:47.015Z,320
2016-08-25T13:34:00.018Z,300
2016-08-25T13:35:13.028Z,275
2016-08-25T13:36:26.025Z,260
2016-08-25T13:37:39.227Z,250
2016-08-25T13:38:52.219Z,235
2016-08-25T13:40:05.231Z,230
2016-08-25T13:41:18.235Z,225
2016-08-25T13:42:31.434Z,220
2016-08-25T13:43:44.431Z,220
2016-08-25T13:44:57.433Z,210
2016-08-25T13:46:10.427Z,205
2016-08-25T13:47:23.430Z,195
2016-08-25T13:48:36.429Z,190
2016-08-25T13:49:49.422Z,190
2016-08-25T13:51:02.424Z,185
2016-08-25T13:52:15.422Z,185
2016-08-25T13:53:28.624Z,185
2016-08-25T13:54:41.615Z,185
2016-08-25T13:55:54.622Z,185
2016-08-25T13:57:07.631Z,185
2016-08-25T13:58:20.629Z,185
2016-08-25T13:59:33.629Z,185
2016-08-25T14:00:46.631Z,185
2016-08-25T14:01:59.681Z,185
2016-08-25T14:03:12.676Z,185
2016-08-25T14:04:25.877Z,185
2016-08-25T14:05:38.890Z,185
2016-08-25T14:06:51.887Z,195
2016-08-25T14:08:06.055Z,220
2016-08-25T14:09:19.104Z,285
2016-08-25T14:10:32.100Z,370
2016-08-25T14:11:45.116Z,400
2016-08-25T14:12:58.108Z,375
2016-08-25T14:14:11.102Z,365
2016-08-25T14:15:24.113Z,380
2016-08-25T14:16:37.128Z,405
2016-08-25T14:17:50.123Z,400
2016-08-25T14:19:03.127Z,370
2016-08-25T14:20:16.129Z,355
2016-08-25T14:21:29.697Z,365
2016-08-25T14:22:42.737Z,365
2016-08-25T14:24:04.625Z,365
2016-08-25T14:25:17.801Z,365
2016-08-25T14:26:35.408Z,370
2016-08-25T14:27:48.462Z,365
2016-08-25T14:29:01.513Z,365
2016-08-25T14:30:14.531Z,365
2016-08-25T14:31:27.528Z,345
2016-08-25T14:32:40.526Z,215
2016-08-25T14:33:53.527Z,145
2016-08-25T14:35:06.529Z,130
2016-08-25T14:36:19.544Z,145
2016-08-25T14:37:32.537Z,135
2016-08-25T14:38:45.733Z,125
2016-08-25T14:39:58.719Z,120
2016-08-25T14:41:11.722Z,120
2016-08-25T14:42:24.717Z,120
2016-08-25T14:43:37.915Z,120
2016-08-25T14:44:50.923Z,120
2016-08-25T14:46:03.918Z,120
2016-08-25T14:47:17.124Z,120
2016-08-25T14:48:30.111Z,115
2016-08-25T14:49:43.102Z,115
2016-08-25T14:50:56.698Z,115
2016-08-25T14:52:10.129Z,115
2016-08-25T14:53:23.129Z,110
2016-08-25T14:54:36.128Z,110
2016-08-25T14:55:49.335Z,110
2016-08-25T14:57:02.325Z,105
2016-08-25T14:58:15.327Z,105
2016-08-25T14:59:28.517Z,110
2016-08-25T15:00:41.513Z,105
2016-08-25T15:01:54.557Z,105
2016-08-25T15:03:07.555Z,105
2016-08-25T15:04:20.753Z,105
2016-08-25T15:05:33.751Z,100
2016-08-25T15:06:46.744Z,100
2016-08-25T15:07:59.727Z,100
2016-08-25T15:09:12.715Z,100
2016-08-25T15:10:25.706Z,100
2016-08-25T15:11:38.712Z,95
2016-08-25T15:12:51.717Z,95
2016-08-25T15:14:05.195Z,95
2016-08-25T15:15:18.204Z,95
2016-08-25T15:16:31.204Z,95
2016-08-25T15:17:44.197Z,95
2016-08-25T15:18:57.188Z,95
2016-08-25T15:20:10.195Z,95
2016-08-25T15:21:23.189Z,95
2016-08-25T15:22:36.204Z,95
2016-08-25T15:23:49.198Z,95
2016-08-25T15:25:02.227Z,95
2016-08-25T15:26:15.228Z,95
2016-08-25T15:27:28.228Z,95
2016-08-25T15:28:41.227Z,95
2016-08-25T15:29:54.218Z,95
2016-08-25T15:31:07.411Z,95
2016-08-25T15:32:20.433Z,90
2016-08-25T15:33:33.422Z,90
2016-08-25T15:34:46.433Z,90
2016-08-25T15:35:59.433Z,90
2016-08-25T15:37:12.419Z,90
2016-08-25T15:38:25.414Z,90
2016-08-25T15:39:38.417Z,90
2016-08-25T15:40:51.411Z,90
2016-08-25T15:42:04.609Z,90
2016-08-25T15:43:17.605Z,90
2016-08-25T15:44:30.595Z,90
2016-08-25T15:45:43.622Z,90
2016-08-25T15:46:56.622Z,90
2016-08-25T15:48:09.813Z,90
2016-08-25T15:49:22.825Z,90
2016-08-25T15:50:35.813Z,90
2016-08-25T15:51:48.813Z,90
2016-08-25T15:53:01.816Z,90
2016-08-25T15:54:14.879Z,90
2016-08-25T15:55:27.883Z,90
2016-08-25T15:56:40.872Z,90
2016-08-25T15:57:54.088Z,90
2016-08-25T15:59:07.101Z,90
2016-08-25T16:00:20.108Z,90
2016-08-25T16:01:33.103Z,90
2016-08-25T16:02:46.148Z,90
2016-08-25T16:03:59.350Z,90
2016-08-25T16:05:12.359Z,90
2016-08-25T16:06:25.347Z,90
2016-08-25T16:07:38.559Z,90
2016-08-25T16:08:51.615Z,90
2016-08-25T16:10:04.603Z,90
2016-08-25T16:11:17.619Z,90
2016-08-25T16:12:30.639Z,90
2016-08-25T16:13:43.667Z,90
2016-08-25T16:14:56.870Z,85
2016-08-25T16:16:10.086Z,85
2016-08-25T16:17:23.552Z,85
2016-08-25T16:18:37.308Z,85
2016-08-25T16:19:50.463Z,85
2016-08-25T16:21:05.111Z,85
2016-08-25T16:22:18.438Z,85
2016-08-25T16:23:31.456Z,85
2016-08-25T16:24:45.058Z,85
2016-08-25T16:25:58.286Z,85
2016-08-25T16:27:13.950Z,85
2016-08-25T16:28:27.180Z,85
2016-08-25T16:29:40.203Z,85
2016-08-25T16:30:53.216Z,85
2016-08-25T16:32:06.925Z,85
2016-08-25T16:33:19.941Z,85
2016-08-25T16:34:32.946Z,85
2016-08-25T16:35:45.956Z,90
2016-08-25T16:36:58.967Z,80
2016-08-25T16:38:11.987Z,80
2016-08-25T16:39:25.017Z,80
2016-08-25T16:40:38.026Z,75
2016-08-25T16:41:51.338Z,80
2016-08-25T16:43:04.352Z,75
2016-08-25T16:44:17.606Z,70
2016-08-25T16:45:30.807Z,70
2016-08-25T16:46:43.811Z,70
2016-08-25T16:47:56.835Z,65
2016-08-25T16:49:09.836Z,65
2016-08-25T16:50:24.135Z,65
2016-08-25T16:51:37.132Z,65
2016-08-25T16:52:50.902Z,65
2016-08-25T16:54:06.181Z,65
2016-08-25T16:55:19.354Z,65
2016-08-25T16:56:35.177Z,65
2016-08-25T16:57:49.162Z,65
2016-08-25T16:59:03.021Z,65
2016-08-25T17:00:16.638Z,65
2016-08-25T17:01:30.503Z,65
2016-08-25T17:02:43.706Z,65
2016-08-25T17:03:56.707Z,60